Time;durP1;ratioP1;P1;durP2;ratioP2;P2;SDS_P1;SDS_P2;PMS_P1;PMS_P2;Temp;Humidity;BMP_temperature;BMP_pressure;BME280_temperature;BME280_humidity;BME280_pressure;Samples;Min_cycle;Max_cycle;Signal;HPM_P1;HPM_P2
2022/10/18 00:01:11;;;;;;;4.93;2.65;;;;;;;19.41;64.63;99701.34;5093447;28;20398;-44
2022/10/18 00:03:38;;;;;;;7.43;2.42;;;;;;;19.46;64.75;99704.13;5093338;28;20055;-44
2022/10/18 00:06:04;;;;;;;7.65;3.95;;;;;;;19.43;64.76;99709.91;5093525;28;20409;-44
2022/10/18 00:08:30;;;;;;;4.82;2.38;;;;;;;19.34;65.21;99701.47;5093322;28;21002;-44
2022/10/18 00:10:56;;;;;;;7.20;2.25;;;;;;;19.32;65.14;99698.22;5093259;28;20359;-44
2022/10/18 00:13:22;;;;;;;7.07;2.42;;;;;;;19.35;64.96;99701.22;5093129;28;20027;-44
2022/10/18 00:15:55;;;;;;;4.90;2.60;;;;;;;19.23;65.16;99692.44;5091783;28;20027;-44
2022/10/18 00:18:20;;;;;;;5.30;2.30;;;;;;;19.17;65.60;99698.69;5091812;28;20081;-44
2022/10/18 00:20:56;;;;;;;4.18;2.15;;;;;;;19.06;65.90;99687.00;5092860;28;20036;-44
2022/10/18 00:23:22;;;;;;;3.03;1.90;;;;;;;19.00;66.33;99708.41;5091813;28;20024;-44
2022/10/18 00:25:47;;;;;;;3.90;2.10;;;;;;;19.02;66.02;99703.69;5093011;28;20390;-44
2022/10/18 00:28:13;;;;;;;7.13;2.72;;;;;;;18.97;66.19;99707.00;5093271;28;20024;-44
2022/10/18 00:30:39;;;;;;;6.18;2.33;;;;;;;18.95;66.36;99712.56;5091833;28;20074;-44
2022/10/18 00:33:04;;;;;;;7.47;2.50;;;;;;;18.95;66.32;99717.06;5092791;28;20028;-44
2022/10/18 00:35:33;;;;;;;8.32;2.60;;;;;;;18.94;66.31;99715.47;5093062;28;20107;-44
2022/10/18 00:37:58;;;;;;;9.13;2.55;;;;;;;18.90;66.36;99716.97;5092783;28;20020;-43
2022/10/18 00:40:24;;;;;;;6.13;2.83;;;;;;;18.96;66.11;99719.50;5092695;28;20060;-44
2022/10/18 00:42:49;;;;;;;6.25;2.22;;;;;;;18.96;66.05;99724.03;5092675;28;20118;-44
2022/10/18 00:45:21;;;;;;;9.52;3.17;;;;;;;18.94;66.27;99723.44;5092885;28;20034;-44
2022/10/18 00:47:54;;;;;;;5.63;2.50;;;;;;;19.00;66.02;99713.75;5092541;28;20032;-44
2022/10/18 00:50:21;;;;;;;5.13;2.38;;;;;;;19.02;65.74;99715.13;5091311;28;20087;-44
2022/10/18 00:52:58;;;;;;;6.88;2.90;;;;;;;18.94;65.85;99715.47;5091063;28;20030;-44
2022/10/18 00:55:26;;;;;;;5.25;2.35;;;;;;;18.86;66.11;99713.13;5090372;28;20020;-44
2022/10/18 00:57:53;;;;;;;6.00;3.05;;;;;;;18.84;66.55;99713.34;5092399;28;20027;-44
2022/10/18 01:00:19;;;;;;;5.82;2.50;;;;;;;18.88;66.27;99711.88;5092340;28;20106;-44
2022/10/18 01:02:46;;;;;;;5.07;2.63;;;;;;;18.80;66.21;99714.84;5092270;28;20448;-44
2022/10/18 01:05:14;;;;;;;6.13;2.72;;;;;;;18.77;66.50;99715.28;5090960;28;20036;-44
2022/10/18 01:07:58;;;;;;;8.63;3.40;;;;;;;18.66;67.22;99724.06;5092261;28;20020;-44
2022/10/18 01:10:33;;;;;;;6.28;3.25;;;;;;;18.56;67.47;99719.28;5092244;28;20032;-44
2022/10/18 01:13:05;;;;;;;;;;;;;;;18.49;67.48;99719.38;5092606;28;20020;-44
2022/10/18 01:15:39;;;;;;;6.60;3.03;;;;;;;18.40;67.90;99717.28;5092104;28;19969;-44
2022/10/18 01:18:15;;;;;;;5.40;2.97;;;;;;;18.26;68.20;99713.97;5092142;28;20062;-44
2022/10/18 01:21:03;;;;;;;5.47;3.08;;;;;;;18.22;68.81;99708.31;5090566;28;20043;-43
2022/10/18 01:23:56;;;;;;;7.38;3.90;;;;;;;18.14;68.95;99706.75;5092040;28;20016;-44
2022/10/18 01:26:52;;;;;;;8.70;2.90;;;;;;;18.23;69.15;99698.47;5074244;28;20478;-43
2022/10/18 01:29:25;;;;;;;;;;;;;;;18.38;68.25;99700.75;5091133;28;20153;-44
2022/10/18 01:32:01;;;;;;;6.78;2.92;;;;;;;18.34;68.31;99703.84;5091171;28;19938;-44
2022/10/18 01:34:31;;;;;;;6.38;3.08;;;;;;;18.29;68.75;99708.19;5090571;28;20039;-44
2022/10/18 01:37:00;;;;;;;5.68;2.38;;;;;;;18.28;68.64;99703.94;5091973;28;20046;-44
2022/10/18 01:39:31;;;;;;;10.50;3.20;;;;;;;18.24;68.93;99705.44;5091849;28;20103;-44
2022/10/18 01:42:01;;;;;;;12.48;3.00;;;;;;;18.25;68.84;99702.56;5091888;28;20056;-44
2022/10/18 01:44:30;;;;;;;6.72;2.75;;;;;;;18.31;68.38;99703.47;5090443;28;20032;-44
2022/10/18 01:46:58;;;;;;;9.40;2.97;;;;;;;18.29;68.45;99705.53;5091758;28;20550;-44
2022/10/18 01:49:25;;;;;;;6.35;2.63;;;;;;;18.30;68.27;99709.84;5090401;28;20113;-43
2022/10/18 01:51:50;;;;;;;6.60;2.70;;;;;;;18.30;68.34;99707.19;5091719;28;20026;-44
2022/10/18 01:54:30;;;;;;;5.63;3.10;;;;;;;18.16;68.69;99701.22;5090454;28;20024;-43
2022/10/18 01:57:20;;;;;;;5.57;2.55;;;;;;;18.19;68.92;99697.31;5091696;28;20529;-44
2022/10/18 01:59:53;;;;;;;10.70;3.05;;;;;;;18.39;68.43;99702.34;5090328;28;20024;-44
2022/10/18 02:02:42;;;;;;;11.85;3.42;;;;;;;18.51;68.57;99705.84;5091906;28;20077;-44
2022/10/18 02:05:39;;;;;;;14.15;4.32;;;;;;;18.91;67.97;99714.06;5091823;28;20118;-44
2022/10/18 02:08:29;;;;;;;7.20;2.88;;;;;;;19.31;66.81;99704.59;5095165;28;20060;-44
2022/10/18 02:11:05;;;;;;;8.25;3.13;;;;;;;19.47;65.93;99711.06;5094203;28;20024;-44
2022/10/18 02:14:10;;;;;;;7.57;2.67;;;;;;;19.47;65.76;99708.41;5094103;28;20046;-44
2022/10/18 02:16:46;;;;;;;9.35;2.75;;;;;;;19.65;65.66;99710.91;5095478;28;20499;-44
2022/10/18 02:19:19;;;;;;;6.88;2.95;;;;;;;19.74;64.23;99709.53;5095691;28;20028;-44
2022/10/18 02:21:47;;;;;;;6.45;2.85;;;;;;;19.31;64.37;99710.72;5095149;28;20127;-44
2022/10/18 02:24:14;;;;;;;8.57;3.53;;;;;;;18.78;65.77;99711.59;5095307;28;20032;-44
2022/10/18 02:26:40;;;;;;;6.75;3.30;;;;;;;18.38;67.17;99709.53;5095267;28;20145;-44
2022/10/18 02:29:07;;;;;;;7.75;3.60;;;;;;;18.07;68.47;99703.41;5095472;28;20063;-44
2022/10/18 02:31:43;;;;;;;6.57;3.28;;;;;;;17.89;68.83;99706.88;5093795;28;20481;-44
2022/10/18 02:34:28;;;;;;;7.43;3.60;;;;;;;17.94;69.39;99706.22;5093770;28;20055;-44
2022/10/18 02:37:01;;;;;;;11.00;3.55;;;;;;;17.96;69.03;99707.59;5095060;28;20020;-44
2022/10/18 02:39:34;;;;;;;8.75;3.05;;;;;;;17.88;69.52;99707.09;5095067;28;20028;-44
2022/10/18 02:42:05;;;;;;;8.52;3.88;;;;;;;17.87;69.67;99706.31;5095015;28;20134;-44
2022/10/18 02:44:32;;;;;;;8.15;4.15;;;;;;;17.93;69.89;99701.94;5094946;28;20138;-44
2022/10/18 02:46:58;;;;;;;4.88;3.58;;;;;;;18.11;69.28;99706.41;5094929;28;20017;-43
2022/10/18 02:49:23;;;;;;;7.55;3.70;;;;;;;18.07;69.28;99702.56;5093518;28;20516;-44
2022/10/18 02:51:49;;;;;;;10.93;5.35;;;;;;;17.88;69.41;99702.59;5094745;28;20047;-44
2022/10/18 02:54:15;;;;;;;7.93;4.60;;;;;;;17.60;70.05;99705.75;5094682;28;20482;-43
2022/10/18 02:56:40;;;;;;;8.13;4.10;;;;;;;17.44;70.67;99714.28;5094665;28;20168;-43
2022/10/18 02:59:07;;;;;;;7.15;3.53;;;;;;;17.35;71.30;99703.16;5094703;28;20031;-43
2022/10/18 03:01:34;;;;;;;6.63;3.60;;;;;;;17.25;71.72;99708.97;5094597;28;20016;-43
2022/10/18 03:04:01;;;;;;;8.68;4.38;;;;;;;17.19;72.40;99711.69;5094579;28;20020;-43
2022/10/18 03:06:27;;;;;;;8.00;4.28;;;;;;;17.10;72.47;99713.78;5094526;28;20016;-43
2022/10/18 03:08:53;;;;;;;9.98;4.47;;;;;;;17.04;73.05;99712.81;5093234;28;20389;-43
2022/10/18 03:11:18;;;;;;;8.85;4.20;;;;;;;16.96;73.34;99721.88;5094376;28;20031;-43
2022/10/18 03:13:44;;;;;;;8.73;4.20;;;;;;;16.89;73.87;99723.75;5094360;28;20020;-43
2022/10/18 03:16:11;;;;;;;7.95;4.25;;;;;;;16.86;73.82;99726.84;5092984;28;20034;-43
2022/10/18 03:18:37;;;;;;;10.75;4.60;;;;;;;16.85;74.07;99717.25;5091840;28;20028;-43
2022/10/18 03:21:04;;;;;;;11.52;4.50;;;;;;;16.75;74.44;99720.34;5094018;28;20114;-43
2022/10/18 03:23:30;;;;;;;9.48;4.65;;;;;;;16.68;74.62;99716.97;5092891;28;20032;-44
2022/10/18 03:25:56;;;;;;;10.70;4.57;;;;;;;16.71;74.98;99723.66;5092951;28;20065;-44
2022/10/18 03:28:21;;;;;;;11.07;6.00;;;;;;;16.61;74.77;99720.69;5094175;28;20541;-43
2022/10/18 03:30:47;;;;;;;9.77;4.90;;;;;;;16.58;75.02;99717.44;5092707;28;20040;-43
2022/10/18 03:33:13;;;;;;;10.75;5.25;;;;;;;16.60;75.37;99730.47;5092574;28;20062;-45
2022/10/18 03:35:39;;;;;;;10.68;4.22;;;;;;;16.66;75.32;99728.78;5093907;28;20032;-46
2022/10/18 03:38:04;;;;;;;7.20;4.50;;;;;;;16.66;75.08;99728.78;5093967;28;20024;-46
2022/10/18 03:40:30;;;;;;;8.23;4.72;;;;;;;16.66;75.23;99723.47;5093799;28;20097;-45
2022/10/18 03:42:56;;;;;;;11.95;5.28;;;;;;;16.63;75.21;99724.72;5093851;28;20032;-46
2022/10/18 03:45:21;;;;;;;11.02;4.70;;;;;;;16.62;75.57;99731.06;5075610;28;20107;-45
2022/10/18 03:47:47;;;;;;;9.18;4.35;;;;;;;16.60;75.31;99725.16;5093688;28;20046;-46
2022/10/18 03:50:13;;;;;;;11.10;5.32;;;;;;;16.60;75.75;99721.69;5093625;28;20030;-46
2022/10/18 03:52:39;;;;;;;6.60;4.80;;;;;;;16.64;75.59;99733.47;5092287;28;20020;-46
2022/10/18 03:55:05;;;;;;;11.02;4.80;;;;;;;16.60;75.94;99732.28;5093470;28;20468;-46
2022/10/18 03:57:30;;;;;;;11.93;6.85;;;;;;;16.64;75.70;99726.38;5093524;28;20051;-45
2022/10/18 03:59:56;;;;;;;8.23;5.70;;;;;;;16.61;75.51;99737.38;5092207;28;20482;-45
2022/10/18 04:02:22;;;;;;;8.55;4.70;;;;;;;16.58;75.93;99732.53;5092104;28;20502;-46
2022/10/18 04:04:48;;;;;;;8.52;4.57;;;;;;;16.62;75.73;99738.19;5093379;28;20197;-46
2022/10/18 04:07:14;;;;;;;6.80;4.90;;;;;;;16.61;75.67;99745.34;5093310;28;20028;-45
2022/10/18 04:09:40;;;;;;;7.05;5.97;;;;;;;16.61;75.85;99736.56;5092005;28;20024;-45
2022/10/18 04:12:05;;;;;;;8.38;5.18;;;;;;;16.60;75.44;99748.19;5093243;28;20085;-45
2022/10/18 04:14:31;;;;;;;12.15;5.72;;;;;;;16.57;75.68;99754.75;5091792;28;20039;-45
2022/10/18 04:16:56;;;;;;;12.23;4.82;;;;;;;16.64;75.66;99747.56;5093147;28;20073;-46
2022/10/18 04:19:22;;;;;;;9.52;4.32;;;;;;;16.68;75.75;99740.81;5091922;28;20485;-45
2022/10/18 04:21:48;;;;;;;7.50;4.00;;;;;;;16.70;75.61;99748.53;5092879;28;20131;-45
2022/10/18 04:24:16;;;;;;;5.68;4.22;;;;;;;16.71;75.48;99750.16;5093008;28;20036;-45
2022/10/18 04:26:42;;;;;;;6.57;4.25;;;;;;;16.71;75.35;99755.47;5092909;28;20020;-45
2022/10/18 04:29:08;;;;;;;7.43;4.78;;;;;;;16.58;75.38;99754.53;5091362;28;20020;-46
2022/10/18 04:31:34;;;;;;;9.13;4.70;;;;;;;16.52;75.53;99758.03;5091529;28;20488;-45
2022/10/18 04:33:59;;;;;;;12.02;5.05;;;;;;;16.52;76.05;99757.19;5092810;28;20105;-45
2022/10/18 04:36:25;;;;;;;8.48;4.30;;;;;;;16.38;76.27;99759.94;5091476;28;20031;-45
2022/10/18 04:38:50;;;;;;;8.43;5.32;;;;;;;16.34;76.55;99764.03;5092805;28;20024;-46
2022/10/18 04:41:16;;;;;;;7.22;4.93;;;;;;;16.33;76.75;99761.59;5091383;28;20035;-45
2022/10/18 04:43:42;;;;;;;11.23;4.90;;;;;;;16.36;76.71;99759.34;5091304;28;20054;-46
2022/10/18 04:46:07;;;;;;;8.75;4.97;;;;;;;16.45;76.28;99761.75;5091598;28;20059;-45
2022/10/18 04:48:33;;;;;;;10.88;5.75;;;;;;;16.45;76.25;99761.75;5091374;28;20016;-45
2022/10/18 04:50:59;;;;;;;9.27;5.70;;;;;;;16.49;76.41;99753.16;5091208;28;20028;-45
2022/10/18 04:53:24;;;;;;;7.90;4.72;;;;;;;16.50;76.28;99748.66;5091147;28;20594;-45
2022/10/18 04:55:50;;;;;;;7.60;4.28;;;;;;;16.52;76.15;99734.19;5092401;28;20535;-46
2022/10/18 04:58:17;;;;;;;5.32;4.45;;;;;;;16.52;75.65;99736.00;5091069;28;20489;-46
2022/10/18 05:00:43;;;;;;;11.30;5.32;;;;;;;16.51;76.01;99737.84;5091115;28;20086;-45
2022/10/18 05:03:12;;;;;;;12.98;5.20;;;;;;;16.41;76.17;99742.78;5091019;28;20123;-45
2022/10/18 05:05:37;;;;;;;12.05;5.50;;;;;;;16.38;76.33;99754.63;5091236;28;20438;-45
2022/10/18 05:08:03;;;;;;;15.80;5.47;;;;;;;16.37;76.65;99755.66;5092270;28;20050;-45
2022/10/18 05:10:29;;;;;;;16.33;5.15;;;;;;;16.43;76.56;99754.00;5090915;28;20035;-46
2022/10/18 05:12:55;;;;;;;8.98;5.85;;;;;;;16.36;76.50;99754.03;5091080;28;20032;-45
2022/10/18 05:15:20;;;;;;;12.25;5.70;;;;;;;16.24;76.75;99753.09;5092164;28;20024;-45
2022/10/18 05:17:46;;;;;;;11.30;5.45;;;;;;;16.16;77.26;99753.31;5092218;28;20020;-45
2022/10/18 05:20:12;;;;;;;13.57;5.45;;;;;;;16.25;77.15;99753.88;5091871;28;20024;-45
2022/10/18 05:22:37;;;;;;;7.63;4.95;;;;;;;16.37;76.72;99754.84;5092100;28;20032;-45
2022/10/18 05:25:03;;;;;;;11.38;4.70;;;;;;;16.39;76.59;99752.78;5090708;28;20116;-45
2022/10/18 05:27:29;;;;;;;11.20;5.78;;;;;;;16.29;76.92;99752.44;5090678;28;20110;-45
2022/10/18 05:29:55;;;;;;;13.90;5.63;;;;;;;16.25;77.23;99748.59;5091996;28;20544;-45
2022/10/18 05:32:20;;;;;;;9.75;5.15;;;;;;;16.21;77.20;99755.34;5091977;28;20032;-45
2022/10/18 05:34:46;;;;;;;8.10;4.55;;;;;;;16.21;77.48;99757.97;5091816;28;20020;-45
2022/10/18 05:37:12;;;;;;;6.20;4.38;;;;;;;16.17;77.48;99758.38;5091895;28;20059;-45
2022/10/18 05:39:38;;;;;;;10.07;5.43;;;;;;;16.13;77.58;99759.84;5091824;28;20027;-46
2022/10/18 05:42:04;;;;;;;11.77;5.35;;;;;;;16.11;77.87;99748.63;5096071;28;20031;-45
2022/10/18 05:44:30;;;;;;;16.98;6.70;;;;;;;16.11;78.11;99751.28;5098509;28;20065;-45
2022/10/18 05:46:56;;;;;;;10.80;5.55;;;;;;;16.10;78.28;99751.53;5097211;28;20512;-45
2022/10/18 05:49:22;;;;;;;14.30;5.85;;;;;;;16.16;78.18;99743.53;5097200;28;20028;-45
2022/10/18 05:51:48;;;;;;;8.82;5.90;;;;;;;16.24;77.77;99752.25;5097202;28;20024;-45
2022/10/18 05:54:14;;;;;;;7.10;5.10;;;;;;;16.28;77.31;99754.28;5097055;28;20043;-45
2022/10/18 05:56:40;;;;;;;7.40;5.32;;;;;;;16.28;77.04;99754.28;5098436;28;20077;-45
2022/10/18 05:59:08;;;;;;;9.57;5.28;;;;;;;16.24;76.98;99744.31;5098478;28;20448;-46
2022/10/18 06:01:37;;;;;;;16.15;6.15;;;;;;;16.20;77.38;99749.22;5098616;28;20107;-45
2022/10/18 06:04:04;;;;;;;10.85;6.15;;;;;;;16.18;77.56;99751.28;5097062;28;20024;-45
2022/10/18 06:06:30;;;;;;;11.25;6.82;;;;;;;16.25;77.16;99748.59;5098373;28;20541;-46
2022/10/18 06:08:56;;;;;;;8.20;4.82;;;;;;;16.27;77.19;99752.66;5097054;28;20109;-46
2022/10/18 06:11:22;;;;;;;17.98;5.30;;;;;;;16.31;77.19;99743.25;5098280;28;20099;-46
2022/10/18 06:13:50;;;;;;;11.05;7.22;;;;;;;16.33;76.91;99743.84;5098257;28;20366;-46
2022/10/18 06:16:19;;;;;;;11.23;5.47;;;;;;;16.39;76.75;99736.91;5098244;28;20028;-46
2022/10/18 06:18:50;;;;;;;8.15;5.20;;;;;;;16.47;76.33;99747.25;5096943;28;20012;-45
2022/10/18 06:21:16;;;;;;;8.52;5.50;;;;;;;16.52;76.17;99746.59;5098142;28;20048;-45
2022/10/18 06:23:42;;;;;;;12.07;5.72;;;;;;;16.60;75.80;99743.72;5096870;28;20497;-46
2022/10/18 06:26:10;;;;;;;12.25;5.88;;;;;;;16.70;75.49;99748.53;5098225;28;20044;-45
2022/10/18 06:28:37;;;;;;;11.73;6.00;;;;;;;16.71;75.23;99752.81;5098224;28;20020;-45
2022/10/18 06:31:04;;;;;;;19.17;6.20;;;;;;;16.70;75.26;99751.19;5097112;28;20046;-45
2022/10/18 06:33:31;;;;;;;21.17;6.55;;;;;;;16.76;75.43;99750.31;5098067;28;20031;-46
2022/10/18 06:35:59;;;;;;;29.20;6.80;;;;;;;16.91;75.11;99756.16;5098090;28;20016;-45
2022/10/18 06:38:25;;;;;;;24.45;7.32;;;;;;;17.19;74.40;99752.28;5096886;28;20059;-45
2022/10/18 06:40:51;;;;;;;13.23;6.07;;;;;;;17.72;72.54;99756.28;5098336;28;20425;-46
2022/10/18 06:43:17;;;;;;;18.83;6.20;;;;;;;18.24;70.83;99753.25;5079853;28;20480;-46
2022/10/18 06:45:43;;;;;;;18.02;5.80;;;;;;;18.80;69.22;99768.06;5098005;28;20119;-46
2022/10/18 06:48:08;;;;;;;11.52;5.07;;;;;;;19.34;67.02;99754.72;5098011;28;20028;-46
2022/10/18 06:50:34;;;;;;;16.85;6.75;;;;;;;19.73;65.53;99755.06;5098229;28;20481;-46
2022/10/18 06:53:01;;;;;;;14.57;5.82;;;;;;;20.07;63.85;99758.69;5096447;28;20478;-44
2022/10/18 06:55:27;;;;;;;12.10;5.30;;;;;;;20.28;62.82;99762.56;5094728;28;20082;-44
2022/10/18 06:57:52;;;;;;;11.63;7.53;;;;;;;20.68;61.88;99775.03;5093388;28;20482;-44
2022/10/18 07:00:18;;;;;;;8.15;4.85;;;;;;;21.06;60.82;99767.41;5093337;28;20033;-44
2022/10/18 07:02:44;;;;;;;11.32;5.65;;;;;;;21.52;59.35;99768.13;5094677;28;20561;-44
2022/10/18 07:05:10;;;;;;;8.90;5.53;;;;;;;21.80;57.53;99767.16;5093175;28;20498;-44
2022/10/18 07:07:36;;;;;;;14.00;6.38;;;;;;;21.99;56.70;99765.00;5094559;28;20071;-44
2022/10/18 07:10:03;;;;;;;12.30;5.03;;;;;;;22.32;55.93;99773.97;5093193;28;20055;-44
2022/10/18 07:12:30;;;;;;;12.13;5.70;;;;;;;22.46;55.13;99759.13;5093132;28;20024;-44
2022/10/18 07:14:55;;;;;;;14.73;5.80;;;;;;;22.41;55.34;99766.31;5093002;28;20072;-44
2022/10/18 07:17:21;;;;;;;12.30;5.40;;;;;;;22.30;54.87;99765.41;5094311;28;20102;-44
2022/10/18 07:19:47;;;;;;;7.53;5.53;;;;;;;21.89;56.38;99764.88;5094306;28;20507;-44
2022/10/18 07:22:12;;;;;;;17.90;10.15;;;;;;;21.81;56.57;99765.31;5094007;28;20040;-44
2022/10/18 07:24:38;;;;;;;13.63;4.50;;;;;;;21.73;56.44;99769.19;5094154;28;20031;-44
2022/10/18 07:27:04;;;;;;;14.88;5.00;;;;;;;21.89;56.89;99776.38;5094150;28;20054;-44
2022/10/18 07:29:30;;;;;;;10.38;4.50;;;;;;;22.31;55.60;99769.66;5092769;28;20028;-44
2022/10/18 07:31:56;;;;;;;33.55;5.60;;;;;;;22.44;54.41;99782.66;5092706;28;20032;-44
2022/10/18 07:34:22;;;;;;;27.13;5.13;;;;;;;22.47;54.77;99789.38;5092594;28;20398;-44
2022/10/18 07:36:48;;;;;;;9.63;4.53;;;;;;;22.51;54.01;99788.59;5093919;28;20027;-44
2022/10/18 07:39:14;;;;;;;17.17;5.18;;;;;;;22.50;54.52;99789.69;5092590;28;20521;-44
2022/10/18 07:41:39;;;;;;;10.18;4.80;;;;;;;22.84;53.88;99781.44;5092577;28;20494;-44
2022/10/18 07:44:05;;;;;;;10.38;4.10;;;;;;;22.94;53.04;99783.41;5092486;28;20409;-44
2022/10/18 07:46:31;;;;;;;15.23;4.70;;;;;;;23.06;53.23;99792.09;5092447;28;20114;-44
2022/10/18 07:48:58;;;;;;;13.07;4.47;;;;;;;23.74;51.91;99786.09;5093750;28;20030;-44
2022/10/18 07:51:24;;;;;;;11.93;4.53;;;;;;;24.19;50.56;99773.22;5093893;28;20024;-44
2022/10/18 07:53:50;;;;;;;10.77;4.28;;;;;;;24.37;49.12;99775.41;5093586;28;20077;-45
2022/10/18 07:56:19;;;;;;;10.68;4.45;;;;;;;24.03;49.29;99775.81;5093538;28;20500;-44
2022/10/18 07:58:47;;;;;;;19.17;5.03;;;;;;;23.85;50.42;99792.38;5093593;28;20119;-44
2022/10/18 08:01:14;;;;;;;10.23;3.92;;;;;;;23.97;49.96;99784.91;5092076;28;20020;-44
2022/10/18 08:03:41;;;;;;;11.48;4.13;;;;;;;24.72;48.38;99781.94;5093210;28;20443;-44
2022/10/18 08:06:08;;;;;;;11.73;4.07;;;;;;;25.38;46.86;99783.03;5092122;28;20089;-44
2022/10/18 08:08:35;;;;;;;9.40;3.80;;;;;;;25.78;45.40;99775.94;5093419;28;20024;-44
2022/10/18 08:11:08;;;;;;;11.32;4.30;;;;;;;25.93;45.71;99767.03;5093281;28;20032;-45
2022/10/18 08:13:34;;;;;;;15.68;4.85;;;;;;;26.24;45.24;99765.81;5093160;28;20035;-45
2022/10/18 08:16:05;;;;;;;11.60;5.03;;;;;;;26.20;43.95;99759.38;5093163;28;20401;-45
2022/10/18 08:18:31;;;;;;;10.73;4.47;;;;;;;25.41;45.50;99758.28;5091936;28;20036;-45
2022/10/18 08:21:03;;;;;;;9.85;4.78;;;;;;;25.57;45.63;99762.53;5091545;28;20059;-45
2022/10/18 08:23:28;;;;;;;18.30;5.25;;;;;;;26.39;45.09;99758.72;5093264;28;20020;-45
2022/10/18 08:25:54;;;;;;;13.73;4.68;;;;;;;26.93;43.25;99763.22;5093009;28;20611;-45
2022/10/18 08:28:20;;;;;;;8.30;3.85;;;;;;;27.24;42.20;99768.34;5091627;28;20639;-44
2022/10/18 08:30:46;;;;;;;12.57;4.00;;;;;;;27.68;41.47;99764.66;5093136;28;20093;-45
2022/10/18 08:33:12;;;;;;;11.77;4.18;;;;;;;28.31;39.47;99754.69;5092771;28;20431;-45
2022/10/18 08:35:37;;;;;;;13.75;3.97;;;;;;;28.26;39.16;99758.28;5091769;28;20385;-45
2022/10/18 08:38:03;;;;;;;16.50;5.10;;;;;;;28.05;40.57;99763.13;5092774;28;20506;-45
2022/10/18 08:40:31;;;;;;;6.47;3.53;;;;;;;28.45;39.09;99756.38;5092707;28;20016;-45
2022/10/18 08:43:31;;;;;;;8.13;3.30;;;;;;;28.66;39.32;99758.81;5092734;28;20127;-45
2022/10/18 08:45:57;;;;;;;6.15;3.70;;;;;;;29.13;37.75;99756.94;5076984;28;20047;-45
2022/10/18 08:48:31;;;;;;;11.98;3.63;;;;;;;29.75;37.36;99750.41;5074454;28;20028;-45
2022/10/18 08:50:57;;;;;;;11.48;3.25;;;;;;;30.02;36.29;99749.56;5092530;28;20115;-45
2022/10/18 08:53:28;;;;;;;18.80;5.10;;;;;;;30.19;36.27;99746.25;5091423;28;20116;-45
2022/10/18 08:56:04;;;;;;;8.38;3.20;;;;;;;29.57;36.19;99755.59;5091179;28;20473;-45
2022/10/18 08:58:32;;;;;;;12.43;4.15;;;;;;;27.86;39.08;99758.47;5091168;28;20028;-45
2022/10/18 09:01:21;;;;;;;7.72;3.30;;;;;;;27.19;40.36;99755.69;5092636;28;20030;-45
2022/10/18 09:04:07;;;;;;;7.57;3.97;;;;;;;27.53;41.16;99754.03;5092582;28;20102;-45
2022/10/18 09:06:39;;;;;;;6.43;3.08;;;;;;;28.37;39.53;99761.63;5090973;28;20039;-45
2022/10/18 09:09:16;;;;;;;7.38;3.35;;;;;;;29.45;37.36;99753.38;5090817;28;20020;-45
2022/10/18 09:11:58;;;;;;;9.90;3.58;;;;;;;30.41;35.14;99746.28;5092231;28;20464;-45
2022/10/18 09:14:49;;;;;;;7.45;2.72;;;;;;;31.56;32.83;99743.94;5092157;28;20020;-45
2022/10/18 09:17:17;;;;;;;5.30;3.03;;;;;;;32.40;30.53;99752.91;5090050;28;20058;-45
2022/10/18 09:20:08;;;;;;;8.48;2.47;;;;;;;32.91;29.02;99738.78;5090801;28;20115;-45
2022/10/18 09:22:57;;;;;;;3.90;2.00;;;;;;;32.48;29.60;99731.44;5092119;28;20036;-45
2022/10/18 09:25:47;;;;;;;5.93;2.20;;;;;;;32.06;29.30;99736.59;5090730;28;20024;-45
2022/10/18 09:28:55;;;;;;;3.38;2.35;;;;;;;31.63;30.10;99733.44;5084212;28;20424;-45
2022/10/18 09:31:26;;;;;;;2.80;1.80;;;;;;;31.38;29.56;99734.91;5091934;28;20050;-45
2022/10/18 09:34:01;;;;;;;4.63;2.50;;;;;;;31.54;29.85;99721.75;5090574;28;20564;-45
2022/10/18 09:36:35;;;;;;;5.57;1.95;;;;;;;31.98;29.88;99725.34;5090951;28;20028;-45
2022/10/18 09:39:11;;;;;;;3.33;2.08;;;;;;;32.61;28.45;99717.72;5091812;28;20067;-45
2022/10/18 09:41:44;;;;;;;3.90;1.98;;;;;;;33.08;27.92;99713.44;5092210;28;20032;-45
2022/10/18 09:44:24;;;;;;;6.18;2.33;;;;;;;33.31;27.64;99703.13;5091887;28;20097;-46
2022/10/18 09:47:15;;;;;;;4.05;1.88;;;;;;;33.40;27.80;99712.03;5091839;28;20459;-46
2022/10/18 09:49:50;;;;;;;2.67;1.70;;;;;;;33.04;27.30;99716.00;5079938;28;20540;-45
2022/10/18 09:52:20;;;;;;;;;;;;;;;32.89;27.67;99719.28;5092248;28;20032;-45
2022/10/18 09:54:57;;;;;;;4.45;1.70;;;;;;;32.20;28.23;99726.38;5091501;28;19916;-45
2022/10/18 09:57:26;;;;;;;2.25;1.50;;;;;;;31.56;28.58;99727.66;5090482;28;20039;-45
2022/10/18 09:59:52;;;;;;;7.10;2.00;;;;;;;31.15;28.18;99727.94;5091773;28;20516;-45
2022/10/18 10:02:21;;;;;;;4.22;2.03;;;;;;;30.84;29.60;99723.31;5091686;28;20028;-45
2022/10/18 10:04:47;;;;;;;2.42;2.08;;;;;;;30.98;29.34;99715.91;5090360;28;20021;-45
2022/10/18 10:07:19;;;;;;;9.27;2.60;;;;;;;31.06;29.13;99708.94;5091651;28;20032;-45
2022/10/18 10:09:58;;;;;;;3.30;1.83;;;;;;;31.21;29.20;99708.53;5090409;28;20031;-45
2022/10/18 10:12:37;;;;;;;3.72;1.80;;;;;;;31.33;28.67;99712.56;5091668;28;20032;-45
2022/10/18 10:15:21;;;;;;;3.20;1.70;;;;;;;30.71;29.45;99705.19;5091534;28;20036;-45
2022/10/18 10:18:16;;;;;;;5.30;1.85;;;;;;;30.37;29.84;99703.88;5091862;28;20039;-45
2022/10/18 10:20:54;;;;;;;2.42;1.50;;;;;;;30.17;30.14;99705.13;5091461;28;20531;-45
2022/10/18 10:23:25;;;;;;;2.35;1.75;;;;;;;30.07;29.88;99703.44;5091437;28;20089;-45
2022/10/18 10:25:58;;;;;;;5.38;1.60;;;;;;;30.00;29.98;99698.47;5090198;28;20039;-45
2022/10/18 10:28:47;;;;;;;2.33;1.55;;;;;;;30.07;30.15;99703.44;5092573;28;20452;-45
2022/10/18 10:31:27;;;;;;;3.10;1.98;;;;;;;30.38;29.90;99695.44;5093912;28;20032;-45
2022/10/18 10:34:11;;;;;;;4.43;2.00;;;;;;;31.20;29.27;99690.66;5093839;28;20497;-45
2022/10/18 10:36:46;;;;;;;3.70;1.90;;;;;;;31.36;29.13;99690.25;5095267;28;20119;-45
2022/10/18 10:39:18;;;;;;;2.67;1.52;;;;;;;31.52;29.05;99690.63;5095241;28;20540;-45
2022/10/18 10:41:58;;;;;;;3.05;1.90;;;;;;;31.51;28.52;99684.41;5093693;28;20397;-45
2022/10/18 10:44:31;;;;;;;4.95;1.88;;;;;;;31.46;28.90;99695.41;5095053;28;20073;-45
2022/10/18 10:46:58;;;;;;;3.33;1.80;;;;;;;31.92;28.36;99690.53;5095006;28;20032;-45
2022/10/18 10:49:38;;;;;;;4.97;2.05;;;;;;;32.41;28.10;99688.47;5093593;28;20077;-46
2022/10/18 10:52:05;;;;;;;3.00;1.85;;;;;;;32.77;28.03;99674.50;5094864;28;20103;-45
2022/10/18 10:54:35;;;;;;;4.32;1.75;;;;;;;32.87;27.34;99675.28;5093447;28;20048;-45
2022/10/18 10:57:10;;;;;;;4.50;1.98;;;;;;;32.63;27.49;99674.69;5094738;28;20024;-45
2022/10/18 10:59:44;;;;;;;7.20;2.13;;;;;;;32.87;27.85;99681.53;5094788;28;20024;-45
2022/10/18 11:02:14;;;;;;;5.80;2.08;;;;;;;32.93;26.90;99676.69;5093281;28;20028;-45
2022/10/18 11:04:41;;;;;;;5.25;1.92;;;;;;;32.52;27.03;99681.59;5094589;28;20027;-45
2022/10/18 11:07:38;;;;;;;3.30;1.83;;;;;;;32.17;28.07;99673.47;5093186;28;20103;-45
2022/10/18 11:10:09;;;;;;;3.15;2.00;;;;;;;32.37;27.91;99663.84;5094486;28;20037;-46
2022/10/18 11:12:44;;;;;;;4.40;1.70;;;;;;;32.19;27.78;99665.00;5093201;28;20489;-45
2022/10/18 11:15:12;;;;;;;8.85;2.60;;;;;;;32.00;27.45;99657.19;5093064;28;20035;-46
2022/10/18 11:17:38;;;;;;;6.10;2.38;;;;;;;31.94;28.58;99664.66;5094403;28;20016;-45
2022/10/18 11:20:09;;;;;;;3.63;1.75;;;;;;;32.21;27.95;99660.03;5092724;28;20030;-46
2022/10/18 11:22:50;;;;;;;6.78;2.10;;;;;;;31.92;27.73;99655.25;5094261;28;20024;-45
2022/10/18 11:25:16;;;;;;;4.32;1.70;;;;;;;31.95;28.15;99644.53;5094271;28;20446;-45
2022/10/18 11:28:00;;;;;;;6.22;2.13;;;;;;;32.20;27.62;99644.88;5094158;28;20513;-45
2022/10/18 11:30:41;;;;;;;6.38;2.03;;;;;;;32.49;27.62;99641.47;5094390;28;20036;-45
2022/10/18 11:33:09;;;;;;;7.03;2.10;;;;;;;32.10;27.67;99635.13;5094034;28;20028;-45
2022/10/18 11:36:03;;;;;;;4.20;2.00;;;;;;;31.81;28.21;99641.16;5094078;28;20035;-45
2022/10/18 11:39:09;;;;;;;4.63;2.33;;;;;;;31.32;28.17;99637.72;5093676;28;20486;-45
2022/10/18 11:41:42;;;;;;;11.43;2.58;;;;;;;31.11;28.54;99632.88;5069877;28;20096;-45
2022/10/18 11:44:57;;;;;;;4.65;2.10;;;;;;;31.60;28.30;99619.28;5092550;28;20020;-45
2022/10/18 11:47:51;;;;;;;5.27;2.07;;;;;;;32.53;28.19;99615.22;5077391;28;20056;-46